Time;durP1;ratioP1;P1;durP2;ratioP2;P2;SDS_P1;SDS_P2;PMS_P1;PMS_P2;Temp;Humidity;BMP_temperature;BMP_pressure;BME280_temperature;BME280_humidity;BME280_pressure;Samples;Min_cycle;Max_cycle;Signal;HPM_P1;HPM_P2
2021/09/16 00:04:11;;;;;;;;;;;17.50;99.90;;;16.57;100.00;95618.69;10521588;28;2031;-75
2021/09/16 00:09:14;;;;;;;;;;;17.50;99.90;;;16.57;100.00;95620.59;10517809;28;1848;-75
2021/09/16 00:14:17;;;;;;;;;;;17.50;99.90;;;16.58;100.00;95617.56;10511479;28;1940;-75
2021/09/16 00:19:20;;;;;;;;;;;17.50;99.90;;;16.59;100.00;95612.94;10519199;28;1910;-76
2021/09/16 00:24:23;;;;;;;;;;;17.50;99.90;;;16.59;100.00;95612.94;10516821;28;2058;-75
2021/09/16 00:29:26;;;;;;;;;;;17.50;99.90;;;16.58;100.00;95614.06;10510521;28;2015;-76
2021/09/16 00:34:28;;;;;;;;;;;17.60;99.90;;;16.57;100.00;95613.25;10518477;28;2051;-76
2021/09/16 00:39:31;;;;;;;;;;;17.60;99.90;;;16.54;100.00;95608.47;10514385;28;1955;-75
2021/09/16 00:44:34;;;;;;;;;;;17.50;99.90;;;16.50;100.00;95596.66;10510341;28;2106;-75
2021/09/16 00:49:37;;;;;;;;;;;17.50;99.90;;;16.46;100.00;95595.66;10509227;28;1853;-76
2021/09/16 00:54:40;;;;;;;;;;;17.50;99.90;;;16.48;100.00;95588.03;10521538;28;2077;-75
2021/09/16 00:59:43;;;;;;;;;;;17.50;99.90;;;16.45;100.00;95599.50;10520538;28;2163;-75
2021/09/16 01:04:46;;;;;;;;;;;17.50;99.90;;;16.44;100.00;95614.19;10510328;28;2015;-75
2021/09/16 01:09:49;;;;;;;;;;;17.50;99.90;;;16.39;100.00;95608.91;10509727;28;2042;-74
2021/09/16 01:15:07;;;;;;;;;;;17.40;99.90;;;16.31;100.00;95612.38;10512445;28;1859;-74
2021/09/16 01:20:18;;;;;;;;;;;17.40;99.90;;;16.23;100.00;95618.59;10510014;28;2035;-74
2021/09/16 01:25:41;;;;;;;;;;;17.30;99.90;;;16.15;100.00;95612.78;10505423;28;1991;-75
2021/09/16 01:31:04;;;;;;;;;;;17.20;99.90;;;16.17;100.00;95617.91;10509726;28;1979;-76
2021/09/16 01:36:07;;;;;;;;;;;17.20;99.90;;;16.21;100.00;95611.53;10515701;28;1838;-75
2021/09/16 01:41:10;;;;;;;;;;;17.20;99.90;;;16.23;100.00;95613.97;10512893;28;2080;-75
2021/09/16 01:46:13;;;;;;;;;;;17.20;99.90;;;16.20;100.00;95604.53;10506403;28;2190;-75
2021/09/16 01:51:15;;;;;;;;;;;17.20;99.90;;;16.05;100.00;95591.38;10505537;28;2222;-75
2021/09/16 01:56:18;;;;;;;;;;;17.20;99.90;;;15.93;100.00;95597.38;10505917;28;2060;-75
2021/09/16 02:01:21;;;;;;;;;;;17.00;99.90;;;15.87;100.00;95600.53;10521951;28;2150;-75
2021/09/16 02:06:24;;;;;;;;;;;17.00;99.90;;;15.85;100.00;95600.06;10508538;28;2567;-74
2021/09/16 02:11:27;;;;;;;;;;;16.90;99.90;;;15.73;100.00;95587.09;10515156;28;2138;-75
2021/09/16 02:16:30;;;;;;;;;;;16.80;99.90;;;15.65;100.00;95583.22;10514241;28;2129;-74
2021/09/16 02:21:32;;;;;;;;;;;16.80;99.90;;;15.56;100.00;95576.91;10516470;28;2109;-75
2021/09/16 02:26:35;;;;;;;;;;;16.70;99.90;;;15.51;100.00;95593.28;10503712;28;2473;-75
2021/09/16 02:31:38;;;;;;;;;;;16.60;99.90;;;15.53;100.00;95579.44;10511213;28;2109;-75
2021/09/16 02:36:41;;;;;;;;;;;16.60;99.90;;;15.51;100.00;95571.63;10516778;28;2141;-75
2021/09/16 02:41:44;;;;;;;;;;;16.60;99.90;;;15.50;100.00;95591.69;10514665;28;2169;-75
2021/09/16 02:46:47;;;;;;;;;;;16.60;99.90;;;15.62;100.00;95604.72;10513554;28;2269;-75
2021/09/16 02:51:49;;;;;;;;;;;16.60;99.90;;;15.58;100.00;95601.78;10515682;28;2137;-75
2021/09/16 02:56:52;;;;;;;;;;;16.70;99.90;;;15.49;100.00;95590.09;10519246;28;2192;-75
2021/09/16 03:01:55;;;;;;;;;;;16.60;99.90;;;15.46;100.00;95588.00;10516698;28;2335;-75
2021/09/16 03:06:58;;;;;;;;;;;16.60;99.90;;;15.38;100.00;95586.03;10521986;28;2132;-75
2021/09/16 03:12:01;;;;;;;;;;;16.50;99.90;;;15.27;100.00;95582.78;10515503;28;2071;-75
2021/09/16 03:17:04;;;;;;;;;;;16.40;99.90;;;15.33;100.00;95594.28;10518753;28;2145;-75
2021/09/16 03:22:07;;;;;;;;;;;16.40;99.90;;;15.46;100.00;95593.44;10510515;28;2274;-74
2021/09/16 03:27:10;;;;;;;;;;;16.40;99.90;;;15.53;100.00;95596.50;10519785;28;2153;-74
2021/09/16 03:32:13;;;;;;;;;;;16.50;99.90;;;15.57;100.00;95575.78;10522341;28;2113;-75
2021/09/16 03:37:16;;;;;;;;;;;16.50;99.90;;;15.62;100.00;95586.53;10521467;28;2063;-74
2021/09/16 03:42:18;;;;;;;;;;;16.60;99.90;;;15.68;100.00;95585.31;10516439;28;2495;-74
2021/09/16 03:47:21;;;;;;;;;;;16.70;99.90;;;15.70;100.00;95584.97;10514562;28;2176;-75
2021/09/16 03:52:24;;;;;;;;;;;16.70;99.90;;;15.69;100.00;95580.69;10516952;28;2156;-75
2021/09/16 03:57:27;;;;;;;;;;;16.70;99.90;;;15.66;100.00;95590.25;10519372;28;2069;-74
2021/09/16 04:02:30;;;;;;;;;;;16.70;99.90;;;15.62;100.00;95586.53;10511676;28;2101;-74
2021/09/16 04:07:33;;;;;;;;;;;16.70;99.90;;;15.50;100.00;95586.28;10504942;28;2201;-73
2021/09/16 04:12:36;;;;;;;;;;;16.60;99.90;;;15.44;100.00;95584.78;10512185;28;2202;-75
2021/09/16 04:17:39;;;;;;;;;;;16.50;99.90;;;15.34;100.00;95576.94;10519663;28;2146;-74
2021/09/16 04:22:42;;;;;;;;;;;16.50;99.90;;;15.37;100.00;95576.31;10511269;28;2102;-74
2021/09/16 04:27:44;;;;;;;;;;;16.40;99.90;;;15.38;100.00;95572.50;10516496;28;2234;-74
2021/09/16 04:32:47;;;;;;;;;;;16.40;99.90;;;15.47;100.00;95565.22;10511983;28;2133;-74
2021/09/16 04:37:50;;;;;;;;;;;16.50;99.90;;;15.46;100.00;95560.09;10516880;28;2000;-75
2021/09/16 04:42:53;;;;;;;;;;;16.50;99.90;;;15.43;100.00;95556.13;10518869;28;2105;-74
2021/09/16 04:47:56;;;;;;;;;;;16.50;99.90;;;15.47;100.00;95565.22;10514184;28;2085;-74
2021/09/16 04:52:59;;;;;;;;;;;16.50;99.90;;;15.64;100.00;95570.75;10520906;28;2109;-75
2021/09/16 04:58:01;;;;;;;;;;;16.50;99.90;;;15.68;100.00;95579.09;10521737;28;2123;-74
2021/09/16 05:03:04;;;;;;;;;;;16.60;99.90;;;15.76;100.00;95577.53;10505405;28;2479;-74
2021/09/16 05:08:07;;;;;;;;;;;16.70;99.90;;;15.76;100.00;95572.09;10513431;28;2058;-74
2021/09/16 05:13:10;;;;;;;;;;;16.70;99.90;;;15.81;100.00;95571.97;10514458;28;2164;-75
2021/09/16 05:18:13;;;;;;;;;;;16.80;99.90;;;15.90;100.00;95578.22;10518934;28;2155;-74
2021/09/16 05:23:16;;;;;;;;;;;16.80;99.90;;;15.98;100.00;95593.75;10515989;28;2093;-73
2021/09/16 05:28:19;;;;;;;;;;;16.90;99.90;;;16.06;100.00;95600.31;10500286;28;2447;-75
2021/09/16 05:33:21;;;;;;;;;;;16.90;99.90;;;16.08;100.00;95590.75;10514100;28;2145;-76
2021/09/16 05:38:24;;;;;;;;;;;17.00;99.90;;;16.17;100.00;95599.72;10518995;28;2032;-75
2021/09/16 05:43:27;;;;;;;;;;;17.10;99.90;;;16.12;100.00;95602.56;10522674;28;1906;-75
2021/09/16 05:48:30;;;;;;;;;;;17.10;99.90;;;16.16;100.00;95590.00;10515856;28;2027;-74
2021/09/16 05:53:33;;;;;;;;;;;17.10;99.90;;;16.20;100.00;95599.09;10521154;28;1889;-74
2021/09/16 05:58:36;;;;;;;;;;;17.10;99.90;;;16.43;100.00;95596.31;10523744;28;2071;-75
2021/09/16 06:03:39;;;;;;;;;;;17.30;99.90;;;16.33;100.00;95607.44;10522436;28;2003;-76
2021/09/16 06:08:42;;;;;;;;;;;17.30;99.90;;;16.37;100.00;95624.69;10523010;28;2082;-76
2021/09/16 06:13:45;;;;;;;;;;;17.30;99.90;;;16.40;100.00;95621.34;10530243;28;2070;-75
2021/09/16 06:18:48;;;;;;;;;;;17.30;99.90;;;16.52;100.00;95623.47;10507810;28;2101;-77
2021/09/16 06:23:51;;;;;;;;;;;17.40;99.90;;;16.67;100.00;95621.13;10510074;28;2066;-77
2021/09/16 06:28:54;;;;;;;;;;;17.50;99.90;;;16.83;100.00;95624.19;10522095;28;1718;-78
2021/09/16 06:33:57;;;;;;;;;;;17.60;99.90;;;16.95;100.00;95623.59;10537018;28;2015;-77
2021/09/16 06:39:00;;;;;;;;;;;17.70;99.90;;;16.98;100.00;95628.38;10517692;28;2023;-75
2021/09/16 06:44:03;;;;;;;;;;;17.80;99.90;;;17.05;100.00;95606.16;10524446;28;2306;-74
2021/09/16 06:49:05;;;;;;;;;;;17.90;99.90;;;17.13;100.00;95608.91;10517306;28;2109;-75
2021/09/16 06:54:08;;;;;;;;;;;17.90;99.90;;;17.17;100.00;95617.22;10530144;28;1964;-74
2021/09/16 06:59:11;;;;;;;;;;;18.00;99.90;;;17.09;100.00;95618.00;10514589;28;2043;-77
2021/09/16 07:04:14;;;;;;;;;;;18.00;99.90;;;17.26;100.00;95613.38;10516952;28;1924;-77
2021/09/16 07:09:17;;;;;;;;;;;18.00;99.90;;;17.40;100.00;95628.72;10515190;28;1964;-75
2021/09/16 07:14:20;;;;;;;;;;;18.20;99.90;;;18.01;100.00;95621.31;10520733;28;2047;-74
2021/09/16 07:19:23;;;;;;;;;;;18.40;99.90;;;18.35;100.00;95620.38;10525643;28;2031;-74
2021/09/16 07:24:25;;;;;;;;;;;18.80;99.90;;;18.77;100.00;95629.50;10524605;28;2101;-72
2021/09/16 07:29:28;;;;;;;;;;;19.30;99.90;;;19.02;100.00;95632.38;10524742;28;2059;-73
2021/09/16 07:34:31;;;;;;;;;;;19.60;99.90;;;19.27;100.00;95628.66;10515594;28;2094;-74
2021/09/16 07:39:34;;;;;;;;;;;19.80;99.90;;;19.88;100.00;95631.69;10527099;28;1996;-73
2021/09/16 07:44:37;;;;;;;;;;;20.10;99.90;;;19.73;100.00;95631.53;10518924;28;1872;-73
2021/09/16 07:49:40;;;;;;;;;;;20.40;99.90;;;19.84;100.00;95629.97;10521314;28;2154;-73
2021/09/16 07:54:43;;;;;;;;;;;20.50;99.90;;;19.82;100.00;95627.59;10507734;28;2039;-73
2021/09/16 07:59:45;;;;;;;;;;;20.50;99.90;;;19.68;100.00;95633.34;10527013;28;2031;-73
2021/09/16 08:04:48;;;;;;;;;;;20.50;99.90;;;19.70;100.00;95624.81;10529185;28;1852;-74
2021/09/16 08:09:51;;;;;;;;;;;20.50;99.90;;;19.71;100.00;95632.66;10524296;28;2109;-73
2021/09/16 08:14:54;;;;;;;;;;;20.50;99.90;;;19.53;100.00;95635.84;10546195;28;1849;-74
2021/09/16 08:19:57;;;;;;;;;;;20.40;99.90;;;19.44;100.00;95644.88;10522383;28;1892;-79
2021/09/16 08:25:00;;;;;;;;;;;20.40;99.90;;;19.12;100.00;95642.88;10514939;28;2086;-76
2021/09/16 08:30:03;;;;;;;;;;;20.30;99.90;;;19.06;100.00;95638.75;10519414;28;2085;-77
2021/09/16 08:35:06;;;;;;;;;;;20.10;99.90;;;18.90;100.00;95636.63;10521203;28;2011;-76
2021/09/16 08:40:09;;;;;;;;;;;19.90;99.90;;;19.17;100.00;95639.97;10521753;28;1980;-77
2021/09/16 08:45:14;;;;;;;;;;;20.00;99.90;;;19.15;100.00;95634.06;10515015;28;1893;-76
2021/09/16 08:50:18;;;;;;;;;;;20.00;99.90;;;19.45;100.00;95645.69;10513232;28;2102;-75
2021/09/16 08:55:21;;;;;;;;;;;20.10;99.90;;;19.65;100.00;95644.91;10525579;28;1924;-73
2021/09/16 09:00:23;;;;;;;;;;;20.30;99.90;;;19.72;100.00;95633.44;10517290;28;1917;-78
2021/09/16 09:05:29;;;;;;;;;;;20.50;99.90;;;19.65;100.00;95638.66;10509963;28;2107;-76
2021/09/16 09:10:32;;;;;;;;;;;20.60;99.90;;;20.22;100.00;95641.44;10514689;28;2063;-77
2021/09/16 09:15:38;;;;;;;;;;;20.80;99.90;;;20.42;100.00;95628.03;10524292;28;2047;-77
2021/09/16 09:20:40;;;;;;;;;;;21.10;99.90;;;20.62;100.00;95637.31;10531258;28;1886;-80
2021/09/16 09:25:43;;;;;;;;;;;21.30;99.90;;;20.58;100.00;95633.69;10520134;28;2043;-77
2021/09/16 09:30:46;;;;;;;;;;;21.30;99.90;;;20.59;100.00;95640.72;10526383;28;1959;-78
2021/09/16 09:35:49;;;;;;;;;;;21.40;99.90;;;20.80;98.92;95633.19;10518634;28;2003;-77
2021/09/16 09:40:52;;;;;;;;;;;21.50;99.90;;;20.85;98.19;95627.53;10516708;28;1914;-78
2021/09/16 09:45:55;;;;;;;;;;;21.60;99.90;;;20.90;97.15;95621.81;10517702;28;1923;-77
2021/09/16 09:50:58;;;;;;;;;;;21.60;99.90;;;20.72;97.64;95623.19;10518888;28;2042;-78
2021/09/16 09:56:01;;;;;;;;;;;21.60;99.90;;;20.61;99.81;95613.88;10512206;28;1991;-78
2021/09/16 10:01:03;;;;;;;;;;;21.50;99.90;;;19.66;100.00;95613.00;10514237;28;1938;-76
2021/09/16 10:06:06;;;;;;;;;;;21.00;99.90;;;19.30;100.00;95614.38;10516882;28;2117;-75
2021/09/16 10:11:09;;;;;;;;;;;20.60;99.90;;;19.34;100.00;95612.59;10523272;28;1881;-75
2021/09/16 10:16:12;;;;;;;;;;;20.40;99.90;;;19.47;100.00;95616.19;10524869;28;2102;-75
2021/09/16 10:21:19;;;;;;;;;;;20.40;99.90;;;19.64;100.00;95616.03;10520843;28;2082;-75
2021/09/16 10:26:21;;;;;;;;;;;20.40;99.90;;;19.52;100.00;95624.13;10517332;28;2074;-75
2021/09/16 10:31:25;;;;;;;;;;;20.50;99.90;;;19.60;100.00;95626.03;10510902;28;1813;-76
2021/09/16 10:36:28;;;;;;;;;;;20.50;99.90;;;19.68;100.00;95627.09;10516068;28;1980;-76
2021/09/16 10:41:32;;;;;;;;;;;20.50;99.90;;;20.31;100.00;95622.25;10551512;28;1995;-78
2021/09/16 10:46:36;;;;;;;;;;;20.80;99.90;;;20.60;98.04;95615.00;10539536;28;2032;-72
2021/09/16 10:51:39;;;;;;;;;;;21.10;99.90;;;21.23;93.70;95612.66;10524052;28;2027;-73
2021/09/16 10:56:42;;;;;;;;;;;21.60;99.90;;;21.58;92.04;95608.25;10522330;28;1877;-76
2021/09/16 11:01:45;;;;;;;;;;;22.10;99.90;;;21.28;91.64;95606.97;10520407;28;1906;-76
2021/09/16 11:06:48;;;;;;;;;;;22.20;99.90;;;20.94;94.05;95600.09;10529310;28;4038;-76
2021/09/16 11:11:51;;;;;;;;;;;22.00;99.90;;;20.59;95.67;95600.56;10539352;28;2024;-76
2021/09/16 11:16:54;;;;;;;;;;;21.60;99.90;;;20.58;96.01;95593.50;10521481;28;2078;-76
2021/09/16 11:21:57;;;;;;;;;;;21.40;99.90;;;20.70;96.39;95590.78;10524743;28;2031;-75
2021/09/16 11:27:00;;;;;;;;;;;21.50;99.90;;;20.91;93.35;95587.91;10520932;28;2137;-76
2021/09/16 11:32:03;;;;;;;;;;;21.60;99.90;;;20.87;95.08;95587.00;10531419;28;1717;-76
2021/09/16 11:37:06;;;;;;;;;;;21.70;99.90;;;20.95;97.32;95575.16;10534570;28;2090;-76
2021/09/16 11:42:09;;;;;;;;;;;21.70;99.90;;;21.13;95.08;95574.88;10526510;28;2023;-76
2021/09/16 11:47:12;;;;;;;;;;;21.80;99.90;;;21.38;96.74;95565.50;10518720;28;2035;-79
2021/09/16 11:52:15;;;;;;;;;;;22.10;99.90;;;21.57;92.67;95562.91;10527473;28;3094;-78
2021/09/16 11:57:17;;;;;;;;;;;22.20;99.90;;;21.51;93.52;95560.78;10525371;28;2079;-81
2021/09/16 12:02:20;;;;;;;;;;;22.30;99.90;;;21.52;92.71;95559.63;10526651;28;1971;-79
2021/09/16 12:07:23;;;;;;;;;;;22.30;99.90;;;21.66;95.08;95557.28;10532656;28;2141;-79
2021/09/16 12:12:26;;;;;;;;;;;22.50;99.90;;;21.74;92.75;95552.78;10530905;28;1984;-78
2021/09/16 12:17:29;;;;;;;;;;;22.50;99.90;;;22.23;88.17;95547.84;10534864;28;2027;-78
2021/09/16 12:22:33;;;;;;;;;;;22.80;99.90;;;22.33;86.41;95541.84;10546745;28;1934;-78
2021/09/16 12:27:36;;;;;;;;;;;23.00;99.90;;;22.76;84.67;95528.31;10529832;28;2099;-76
2021/09/16 12:32:39;;;;;;;;;;;23.30;99.90;;;22.92;82.72;95516.19;10522218;28;1898;-78
2021/09/16 12:37:42;;;;;;;;;;;23.40;99.90;;;23.50;78.35;95522.84;10533768;28;2109;-78
2021/09/16 12:42:46;;;;;;;;;;;23.70;99.90;;;23.89;76.49;95516.16;10535172;28;1889;-79
2021/09/16 12:47:49;;;;;;;;;;;24.20;99.90;;;23.48;77.44;95506.75;10524296;28;1968;-77
2021/09/16 12:52:52;;;;;;;;;;;24.40;99.90;;;23.41;76.70;95492.88;10522750;28;1898;-76
2021/09/16 12:57:55;;;;;;;;;;;24.20;99.90;;;22.62;77.02;95496.72;10509229;28;2089;-76
2021/09/16 13:02:58;;;;;;;;;;;23.90;99.90;;;21.36;83.53;95518.56;10516767;28;2000;-78
2021/09/16 13:08:01;;;;;;;;;;;22.60;99.90;;;19.48;100.00;95540.66;10512590;28;1964;-74
2021/09/16 13:13:04;;;;;;;;;;;21.70;99.90;;;18.43;100.00;95534.38;10507987;28;1984;-76
2021/09/16 13:18:07;;;;;;;;;;;20.00;99.90;;;18.02;100.00;95546.75;10518670;28;2074;-76
2021/09/16 13:23:10;;;;;;;;;;;19.30;99.90;;;17.69;100.00;95550.03;10511573;28;1905;-75
2021/09/16 13:28:13;;;;;;;;;;;18.80;99.90;;;17.39;100.00;95545.63;10512010;28;2309;-76
2021/09/16 13:33:16;;;;;;;;;;;18.50;99.90;;;17.62;100.00;95538.84;10517772;28;2238;-77
2021/09/16 13:38:20;;;;;;;;;;;18.50;99.90;;;17.74;100.00;95533.56;10524151;28;2054;-76
2021/09/16 13:43:23;;;;;;;;;;;18.50;99.90;;;18.04;100.00;95536.34;10526096;28;2051;-77
2021/09/16 13:48:26;;;;;;;;;;;18.70;99.90;;;18.27;100.00;95534.97;10517044;28;1883;-78
2021/09/16 13:53:29;;;;;;;;;;;18.90;99.90;;;18.53;100.00;95531.28;10514193;28;2260;-77
2021/09/16 13:58:32;;;;;;;;;;;19.00;99.90;;;18.62;100.00;95526.56;10521021;28;2285;-77
2021/09/16 14:03:35;;;;;;;;;;;19.20;99.90;;;18.50;100.00;95523.75;10521736;28;1977;-75
2021/09/16 14:08:38;;;;;;;;;;;19.20;99.90;;;18.48;100.00;95536.91;10516028;28;2010;-76
2021/09/16 14:13:42;;;;;;;;;;;19.20;99.90;;;18.45;100.00;95526.66;10513490;28;1887;-76
2021/09/16 14:18:45;;;;;;;;;;;19.20;99.90;;;18.68;100.00;95522.56;10535823;28;2105;-78
2021/09/16 14:23:48;;;;;;;;;;;19.30;99.90;;;18.79;100.00;95515.59;10513528;28;1925;-75
2021/09/16 14:28:51;;;;;;;;;;;19.40;99.90;;;18.99;100.00;95529.53;10513505;28;1884;-75
2021/09/16 14:33:54;;;;;;;;;;;19.50;99.90;;;18.89;100.00;95526.09;10506110;28;2031;-77
2021/09/16 14:38:57;;;;;;;;;;;19.50;99.90;;;18.83;100.00;95532.88;10507448;28;2102;-77
2021/09/16 14:44:00;;;;;;;;;;;19.50;99.90;;;18.80;100.00;95533.53;10516913;28;1905;-77
2021/09/16 14:49:03;;;;;;;;;;;19.50;99.90;;;18.56;100.00;95541.50;10506762;28;1833;-76
2021/09/16 14:54:06;;;;;;;;;;;19.40;99.90;;;18.48;100.00;95542.34;10524640;28;2237;-77
2021/09/16 14:59:09;;;;;;;;;;;19.30;99.90;;;18.15;100.00;95548.44;10519673;28;2126;-75
2021/09/16 15:04:11;;;;;;;;;;;19.10;99.90;;;17.94;100.00;95545.66;10522327;28;2225;-77
2021/09/16 15:09:14;;;;;;;;;;;19.00;99.90;;;17.80;100.00;95551.28;10530355;28;2077;-76
2021/09/16 15:14:18;;;;;;;;;;;18.80;99.90;;;17.35;100.00;95547.38;10515765;28;2086;-76
2021/09/16 15:19:21;;;;;;;;;;;18.50;99.90;;;17.35;100.00;95547.38;10521282;28;2035;-77
2021/09/16 15:24:24;;;;;;;;;;;18.40;99.90;;;17.31;100.00;95546.44;10518913;28;1984;-76
2021/09/16 15:29:27;;;;;;;;;;;18.30;99.90;;;17.46;100.00;95543.22;10531014;28;1916;-76
2021/09/16 15:34:29;;;;;;;;;;;18.30;99.90;;;17.45;100.00;95538.91;10537925;28;2074;-76
2021/09/16 15:39:32;;;;;;;;;;;18.40;99.90;;;17.60;100.00;95530.22;10536351;28;1940;-74
2021/09/16 15:44:35;;;;;;;;;;;18.40;99.90;;;17.83;100.00;95536.25;10527772;28;2130;-76
2021/09/16 15:49:41;;;;;;;;;;;18.60;99.90;;;17.91;100.00;95538.16;10536909;28;1933;-75
2021/09/16 15:54:44;;;;;;;;;;;18.70;99.90;;;17.85;100.00;95546.81;10537459;28;2309;-75
2021/09/16 15:59:47;;;;;;;;;;;18.70;99.90;;;17.65;100.00;95543.63;10518720;28;2475;-76
2021/09/16 16:04:50;;;;;;;;;;;18.60;99.90;;;17.66;100.00;95547.94;10518811;28;2249;-76
2021/09/16 16:09:53;;;;;;;;;;;18.50;99.90;;;17.53;100.00;95559.81;10522128;28;1913;-76
2021/09/16 16:14:56;;;;;;;;;;;18.50;99.90;;;17.63;100.00;95559.47;10520444;28;1932;-75
2021/09/16 16:19:59;;;;;;;;;;;18.50;99.90;;;17.51;100.00;95572.94;10520686;28;1924;-76
2021/09/16 16:25:02;;;;;;;;;;;18.50;99.90;;;16.86;100.00;95582.03;10512929;28;1988;-76
2021/09/16 16:30:08;;;;;;;;;;;18.20;99.90;;;16.46;100.00;95588.31;10517630;28;1963;-76
2021/09/16 16:35:24;;;;;;;;;;;17.70;99.90;;;16.29;100.00;95585.59;10517178;28;1882;-75
2021/09/16 16:40:27;;;;;;;;;;;17.40;99.90;;;16.18;100.00;95587.78;10518841;28;2059;-75
2021/09/16 16:45:30;;;;;;;;;;;17.30;99.90;;;16.08;100.00;95596.16;10519911;28;2288;-74
2021/09/16 16:50:33;;;;;;;;;;;17.20;99.90;;;15.97;100.00;95604.88;10521152;28;2320;-75
2021/09/16 16:55:36;;;;;;;;;;;17.10;99.90;;;15.83;100.00;95599.56;10524610;28;2293;-77
2021/09/16 17:00:39;;;;;;;;;;;16.90;99.90;;;15.68;100.00;95604.28;10518673;28;2262;-76
2021/09/16 17:05:42;;;;;;;;;;;16.80;99.90;;;15.62;100.00;95602.78;10525168;28;1978;-78
2021/09/16 17:10:45;;;;;;;;;;;16.70;99.90;;;15.56;100.00;95617.53;10535854;28;1978;-77
2021/09/16 17:15:51;;;;;;;;;;;16.60;99.90;;;15.50;100.00;95629.63;10542257;28;2078;-78
2021/09/16 17:20:54;;;;;;;;;;;16.50;99.90;;;15.31;100.00;95627.09;10544965;28;1862;-78
2021/09/16 17:25:57;;;;;;;;;;;16.40;99.90;;;15.27;100.00;95626.13;10537383;28;2043;-78
2021/09/16 17:31:00;;;;;;;;;;;16.30;99.90;;;15.26;100.00;95629.09;10544311;28;2110;-78
2021/09/16 17:36:03;;;;;;;;;;;16.30;99.90;;;15.22;100.00;95630.84;10546991;28;1893;-78
2021/09/16 17:41:06;;;;;;;;;;;16.20;99.90;;;15.21;100.00;95637.38;10548022;28;2106;-79
2021/09/16 17:46:09;;;;;;;;;;;16.20;99.90;;;15.23;100.00;95635.94;10539926;28;1976;-78
2021/09/16 17:51:12;;;;;;;;;;;16.20;99.90;;;15.25;100.00;95646.47;10550350;28;2297;-78
2021/09/16 17:56:15;;;;;;;;;;;16.20;99.90;;;15.26;100.00;95650.78;10543459;28;2086;-77
2021/09/16 18:01:17;;;;;;;;;;;16.20;99.90;;;15.16;100.00;95659.94;10532396;28;2166;-77
2021/09/16 18:06:21;;;;;;;;;;;16.20;99.90;;;15.02;100.00;95657.28;10532612;28;2059;-78
2021/09/16 18:11:24;;;;;;;;;;;16.10;99.90;;;14.94;100.00;95660.69;10553030;28;1905;-79
2021/09/16 18:16:26;;;;;;;;;;;16.00;99.90;;;14.95;100.00;95667.72;10555463;28;1887;-79
2021/09/16 18:21:30;;;;;;;;;;;15.90;99.90;;;14.83;100.00;95681.75;10547871;28;2162;-78
2021/09/16 18:26:32;;;;;;;;;;;15.90;99.90;;;14.75;100.00;95678.94;10569619;28;2058;-78
2021/09/16 18:31:35;;;;;;;;;;;15.70;99.90;;;14.70;100.00;95685.28;10565065;28;2107;-78
2021/09/16 18:36:38;;;;;;;;;;;15.80;99.90;;;14.69;100.00;95693.69;10564189;28;2056;-78
2021/09/16 18:41:41;;;;;;;;;;;15.70;99.90;;;14.67;100.00;95695.88;10525566;28;2094;-77
2021/09/16 18:46:44;;;;;;;;;;;15.70;99.90;;;14.75;100.00;95695.19;10551863;28;2153;-78
2021/09/16 18:51:47;;;;;;;;;;;15.70;99.90;;;14.73;100.00;95703.59;10540470;28;2202;-77
2021/09/16 18:56:50;;;;;;;;;;;15.80;99.90;;;14.60;100.00;95710.63;10530117;28;2034;-77
2021/09/16 19:01:53;;;;;;;;;;;15.60;99.90;;;14.59;100.00;95714.44;10542766;28;2078;-76
2021/09/16 19:06:59;;;;;;;;;;;15.70;99.90;;;14.63;100.00;95714.63;10537925;28;2053;-78
2021/09/16 19:12:04;;;;;;;;;;;15.70;99.90;;;14.54;100.00;95722.63;10549580;28;2090;-78
2021/09/16 19:17:37;;;;;;;;;;;15.60;99.90;;;14.49;100.00;95730.84;10537712;28;1468;-79
2021/09/16 19:22:40;;;;;;;;;;;15.50;99.90;;;14.31;100.00;95728.97;10555155;28;1951;-78
2021/09/16 19:27:47;;;;;;;;;;;15.40;99.90;;;14.30;100.00;95732.78;10564384;28;2039;-80
2021/09/16 19:32:50;;;;;;;;;;;15.30;99.90;;;14.26;100.00;95743.41;10573781;28;2265;-79
2021/09/16 19:37:53;;;;;;;;;;;15.30;99.90;;;14.26;100.00;95750.72;10578758;28;1913;-80
2021/09/16 19:42:56;;;;;;;;;;;15.40;99.90;;;14.25;100.00;95751.81;10558986;28;2117;-79
2021/09/16 19:47:59;;;;;;;;;;;15.30;99.90;;;14.15;100.00;95749.28;10562656;28;2027;-79
2021/09/16 19:53:02;;;;;;;;;;;15.30;99.90;;;14.19;100.00;95748.41;10574813;28;1856;-78
2021/09/16 19:58:05;;;;;;;;;;;15.30;99.90;;;14.18;100.00;95751.38;10562331;28;1921;-78
2021/09/16 20:03:08;;;;;;;;;;;15.20;99.90;;;14.13;100.00;95744.19;10553698;28;2080;-78
2021/09/16 20:08:11;;;;;;;;;;;15.10;99.90;;;14.10;100.00;95743.97;10549670;28;2173;-80
2021/09/16 20:13:14;;;;;;;;;;;15.20;99.90;;;14.00;100.00;95745.75;10549231;28;2019;-78
2021/09/16 20:18:16;;;;;;;;;;;15.10;99.90;;;14.01;100.00;95751.97;10552106;28;1782;-80
2021/09/16 20:23:20;;;;;;;;;;;15.00;99.90;;;14.01;100.00;95752.75;10545681;28;1960;-79
2021/09/16 20:28:23;;;;;;;;;;;15.00;99.90;;;13.95;100.00;95743.13;10539464;28;2055;-80
2021/09/16 20:33:25;;;;;;;;;;;15.00;99.90;;;13.93;100.00;95748.03;10526556;28;2039;-81
2021/09/16 20:38:29;;;;;;;;;;;15.00;99.90;;;13.95;100.00;95748.53;10533991;28;2059;-78
2021/09/16 20:43:32;;;;;;;;;;;15.00;99.90;;;13.97;100.00;95746.31;10538451;28;2059;-79
2021/09/16 20:48:35;;;;;;;;;;;15.00;99.90;;;14.04;100.00;95735.94;10538180;28;2108;-81
2021/09/16 20:53:38;;;;;;;;;;;15.00;99.90;;;14.04;100.00;95740.53;10540285;28;2082;-79
2021/09/16 20:58:41;;;;;;;;;;;15.00;99.90;;;14.07;100.00;95746.16;10554782;28;2031;-80
2021/09/16 21:03:43;;;;;;;;;;;15.00;99.90;;;14.14;100.00;95753.91;10547471;28;2171;-81
2021/09/16 21:08:47;;;;;;;;;;;15.10;99.90;;;14.15;100.00;95765.50;10553154;28;2162;-79
2021/09/16 21:13:50;;;;;;;;;;;15.20;99.90;;;14.13;100.00;95759.59;10543241;28;2074;-80
2021/09/16 21:18:57;;;;;;;;;;;15.10;99.90;;;14.01;100.00;95768.97;10540013;28;2035;-78
2021/09/16 21:24:00;;;;;;;;;;;15.10;99.90;;;13.88;100.00;95758.91;10542889;28;1908;-78
2021/09/16 21:29:03;;;;;;;;;;;15.00;99.90;;;13.84;100.00;95766.00;10535938;28;2459;-80
2021/09/16 21:34:06;;;;;;;;;;;14.90;99.90;;;13.77;100.00;95763.66;10533079;28;2188;-80
2021/09/16 21:39:09;;;;;;;;;;;14.80;99.90;;;13.72;100.00;95768.34;10533577;28;2368;-79
2021/09/16 21:44:12;;;;;;;;;;;14.80;99.90;;;13.59;100.00;95766.38;10541317;28;2327;-78
2021/09/16 21:49:15;;;;;;;;;;;14.70;99.90;;;13.51;100.00;95755.16;10544905;28;2118;-79
2021/09/16 21:54:18;;;;;;;;;;;14.60;99.90;;;13.46;100.00;95765.22;10539300;28;2107;-80
2021/09/16 21:59:21;;;;;;;;;;;14.60;99.90;;;13.48;100.00;95765.72;10548347;28;2139;-79
2021/09/16 22:04:24;;;;;;;;;;;14.60;99.90;;;13.39;100.00;95753.97;10556260;28;2130;-80
2021/09/16 22:09:26;;;;;;;;;;;14.50;99.90;;;13.14;100.00;95765.88;10541566;28;2170;-80
2021/09/16 22:14:29;;;;;;;;;;;14.30;99.90;;;12.95;100.00;95773.94;10539361;28;2266;-80
2021/09/16 22:19:32;;;;;;;;;;;14.20;99.90;;;13.01;100.00;95770.09;10539123;28;2055;-80
2021/09/16 22:24:35;;;;;;;;;;;14.20;99.90;;;13.11;100.00;95766.47;10553566;28;2068;-80
2021/09/16 22:29:38;;;;;;;;;;;14.20;99.90;;;13.27;100.00;95765.19;10531075;28;2240;-80
2021/09/16 22:34:41;;;;;;;;;;;14.20;99.90;;;13.37;100.00;95759.69;10543045;28;2253;-79
2021/09/16 22:39:44;;;;;;;;;;;14.30;99.90;;;13.17;100.00;95755.31;10543717;28;2111;-79
2021/09/16 22:44:47;;;;;;;;;;;14.30;99.90;;;12.92;100.00;95753.75;10550000;28;2185;-80
2021/09/16 22:49:50;;;;;;;;;;;14.20;99.90;;;12.67;100.00;95757.56;10557848;28;2159;-81
2021/09/16 22:54:53;;;;;;;;;;;14.00;99.90;;;12.48;100.00;95759.38;10565450;28;2160;-80
2021/09/16 23:00:15;;;;;;;;;;;13.80;99.90;;;12.33;100.00;95763.00;10563209;28;2023;-81